Time;durP1;ratioP1;P1;durP2;ratioP2;P2;SDS_P1;SDS_P2;PMS_P1;PMS_P2;Temp;Humidity;BMP_temperature;BMP_pressure;BME280_temperature;BME280_humidity;BME280_pressure;Samples;Min_cycle;Max_cycle;Signal;HPM_P1;HPM_P2
2022/05/10 00:00:08;;;;;;;7.18;3.05;;;;;;;7.06;79.69;100256.59;10456054;28;20408;-70
2022/05/10 00:05:10;;;;;;;4.97;2.80;;;;;;;6.93;79.79;100234.97;10456340;28;20123;-70
2022/05/10 00:10:11;;;;;;;10.20;3.13;;;;;;;6.89;79.86;100223.88;10456469;28;20156;-70
2022/05/10 00:15:13;;;;;;;5.53;2.70;;;;;;;6.82;79.76;100234.19;10455956;28;20128;-71
2022/05/10 00:20:20;;;;;;;5.25;2.55;;;;;;;6.09;80.47;100104.78;10455787;28;20071;-70
2022/05/10 00:25:24;;;;;;;12.93;2.92;;;;;;;6.90;79.24;100241.38;10454240;28;20503;-70
2022/05/10 00:30:26;;;;;;;6.57;3.20;;;;;;;6.63;79.16;100179.66;10455975;28;20053;-70
2022/05/10 00:35:30;;;;;;;10.90;3.42;;;;;;;7.07;79.51;100230.03;10455468;28;20044;-70
2022/05/10 00:40:35;;;;;;;4.97;2.93;;;;;;;7.18;79.75;100231.63;10455798;28;20091;-70
2022/05/10 00:45:46;;;;;;;6.85;3.15;;;;;;;6.98;78.55;100201.84;10456311;28;20048;-70
2022/05/10 00:50:55;;;;;;;5.85;3.05;;;;;;;6.63;80.51;100174.38;10469320;28;20052;-70
2022/05/10 00:56:12;;;;;;;6.03;2.90;;;;;;;6.59;80.70;100159.00;10454164;28;20456;-70
2022/05/10 01:01:20;;;;;;;8.20;3.33;;;;;;;6.91;80.71;100235.13;10454543;28;20048;-71
2022/05/10 01:06:32;;;;;;;6.00;3.40;;;;;;;6.85;81.86;100223.34;10454008;28;20547;-70
2022/05/10 01:12:07;;;;;;;20.42;4.90;;;;;;;6.52;83.95;100163.19;10457157;28;20068;-70
2022/05/10 01:17:08;;;;;;;19.67;4.38;;;;;;;6.70;80.34;100197.56;10454499;28;20044;-70
2022/05/10 01:22:31;;;;;;;7.50;3.78;;;;;;;6.89;82.66;100230.97;10454126;28;20040;-70
2022/05/10 01:28:09;;;;;;;17.20;4.30;;;;;;;6.96;82.93;100213.53;10454653;28;20041;-70
2022/05/10 01:33:33;;;;;;;23.98;4.75;;;;;;;5.71;82.78;100010.81;10453415;28;20072;-70
2022/05/10 01:38:47;;;;;;;9.65;3.90;;;;;;;6.73;83.11;100191.97;10454110;28;20174;-70
2022/05/10 01:43:58;;;;;;;14.98;4.60;;;;;;;6.54;82.39;100174.44;10454109;28;20041;-70
2022/05/10 01:49:09;;;;;;;12.18;3.70;;;;;;;6.61;82.02;100188.69;10435828;28;20033;-70
2022/05/10 01:54:35;;;;;;;16.25;4.10;;;;;;;6.58;82.46;100162.59;10453361;28;20037;-70
2022/05/10 01:59:38;;;;;;;14.23;4.13;;;;;;;5.81;80.87;100077.53;10451581;28;20041;-70
2022/05/10 02:04:40;;;;;;;9.88;3.50;;;;;;;6.49;81.88;100201.28;10501751;28;20044;-70
2022/05/10 02:09:49;;;;;;;6.10;3.85;;;;;;;6.71;81.55;100213.25;10502426;28;20523;-70
2022/05/10 02:15:02;;;;;;;10.60;3.45;;;;;;;6.06;82.26;100047.06;10501911;28;20107;-70
2022/05/10 02:20:08;;;;;;;5.85;3.35;;;;;;;6.81;80.08;100113.69;10502637;28;20052;-70
2022/05/10 02:25:15;;;;;;;7.57;3.25;;;;;;;7.26;80.70;100143.69;10501798;28;20040;-71
2022/05/10 02:30:20;;;;;;;10.65;3.08;;;;;;;7.59;79.28;100099.84;10500815;28;20565;-71
2022/05/10 02:35:21;;;;;;;8.20;3.47;;;;;;;8.82;78.01;100179.88;10501752;28;20101;-71
2022/05/10 02:40:22;;;;;;;7.30;3.33;;;;;;;9.65;76.20;100179.88;10501126;28;20037;-70
2022/05/10 02:45:23;;;;;;;9.05;3.47;;;;;;;10.35;74.71;100207.66;10500477;28;20460;-70
2022/05/10 02:50:24;;;;;;;12.20;4.30;;;;;;;10.98;74.08;100198.81;10500860;28;20123;-71
2022/05/10 02:55:42;;;;;;;14.85;4.60;;;;;;;11.56;71.39;100138.91;10500899;28;20052;-70
2022/05/10 03:00:44;;;;;;;8.02;4.32;;;;;;;12.52;70.42;100139.09;10499962;28;20044;-70
2022/05/10 03:05:44;;;;;;;13.48;4.55;;;;;;;13.50;66.83;100084.34;10500868;28;20484;-71
2022/05/10 03:10:45;;;;;;;13.73;4.90;;;;;;;15.20;64.02;100144.44;10499359;28;20056;-71
2022/05/10 03:15:46;;;;;;;10.38;4.60;;;;;;;16.37;61.03;100178.63;10499250;28;20044;-71
2022/05/10 03:20:47;;;;;;;8.98;4.35;;;;;;;16.65;57.95;100056.81;10498995;28;20040;-72
2022/05/10 03:25:48;;;;;;;11.18;4.32;;;;;;;17.14;55.81;100030.31;10499218;28;20488;-72
2022/05/10 03:30:49;;;;;;;8.45;4.50;;;;;;;17.29;53.42;100031.66;10499439;28;20044;-71
2022/05/10 03:35:50;;;;;;;8.82;4.28;;;;;;;17.90;53.02;100082.97;10498298;28;20039;-71
2022/05/10 03:40:50;;;;;;;9.07;4.65;;;;;;;18.18;51.17;100091.34;10498139;28;20041;-72
2022/05/10 03:45:51;;;;;;;6.63;4.18;;;;;;;18.71;50.30;100163.34;10499162;28;20040;-71
2022/05/10 03:50:52;;;;;;;9.13;4.40;;;;;;;19.16;49.08;100197.16;10497736;28;20063;-72
2022/05/10 03:55:53;;;;;;;8.50;4.70;;;;;;;17.88;48.28;100004.44;10497303;28;20047;-72
2022/05/10 04:00:54;;;;;;;8.77;5.05;;;;;;;18.95;48.04;100193.09;10521132;28;20040;-73
2022/05/10 04:05:54;;;;;;;7.25;4.80;;;;;;;18.75;48.04;100128.75;10497971;28;20044;-72
2022/05/10 04:11:00;;;;;;;10.43;5.13;;;;;;;19.50;47.06;100201.03;10525416;28;20048;-74
2022/05/10 04:16:01;;;;;;;11.38;5.53;;;;;;;19.61;47.30;100197.53;10455858;28;20045;-71
2022/05/10 04:21:02;;;;;;;9.20;5.35;;;;;;;19.28;46.87;100167.59;10455427;28;20055;-73
2022/05/10 04:26:08;;;;;;;10.23;6.05;;;;;;;19.70;46.70;100208.03;10508799;28;20042;-72
2022/05/10 04:31:09;;;;;;;8.45;5.60;;;;;;;19.84;46.99;100194.09;10538364;28;20040;-72
2022/05/10 04:36:10;;;;;;;9.15;5.95;;;;;;;19.57;46.81;100149.75;10498941;28;20127;-72
2022/05/10 04:41:25;;;;;;;11.80;6.03;;;;;;;19.34;45.94;100161.28;10495859;28;20509;-74
2022/05/10 04:46:28;;;;;;;13.52;6.35;;;;;;;19.49;46.51;100206.66;10495672;28;20468;-71
2022/05/10 04:51:29;;;;;;;10.97;6.70;;;;;;;18.64;46.25;100145.66;10477834;28;20032;-73
2022/05/10 04:56:29;;;;;;;10.18;6.13;;;;;;;18.25;46.89;100143.19;10496077;28;20044;-72
2022/05/10 05:01:31;;;;;;;14.80;6.75;;;;;;;18.20;47.21;100193.28;10495374;28;20044;-74
2022/05/10 05:06:34;;;;;;;13.32;5.60;;;;;;;17.82;48.46;100199.59;10477353;28;20458;-71
2022/05/10 05:11:35;;;;;;;8.88;5.07;;;;;;;17.09;48.58;100060.50;10477623;28;20180;-72
2022/05/10 05:16:37;;;;;;;10.18;5.47;;;;;;;17.85;48.63;100211.78;10494987;28;20080;-73
2022/05/10 05:21:38;;;;;;;10.43;5.40;;;;;;;17.69;49.36;100183.56;10477491;28;20045;-72
2022/05/10 05:26:39;;;;;;;14.85;5.95;;;;;;;16.70;49.05;100067.72;10495521;28;20050;-72
2022/05/10 05:31:41;;;;;;;15.00;5.60;;;;;;;16.84;48.99;100103.38;10497748;28;20456;-72
2022/05/10 05:36:42;;;;;;;9.55;5.15;;;;;;;17.60;49.45;100195.63;10503595;28;20071;-71
2022/05/10 05:41:43;;;;;;;13.27;4.72;;;;;;;16.05;49.90;99987.41;10502935;28;20131;-75
2022/05/10 05:46:44;;;;;;;11.50;4.43;;;;;;;17.39;49.97;100202.16;10490904;28;20497;-73
2022/05/10 05:51:45;;;;;;;11.38;5.60;;;;;;;17.43;49.06;100161.22;10464796;28;20045;-76
2022/05/10 05:56:46;;;;;;;10.10;4.88;;;;;;;17.10;48.68;100097.03;10460767;28;20124;-74
2022/05/10 06:01:46;;;;;;;8.77;4.68;;;;;;;16.91;48.63;100063.09;10474245;28;20041;-77
2022/05/10 06:06:47;;;;;;;11.70;5.55;;;;;;;17.73;48.61;100212.44;10516158;28;20098;-73
2022/05/10 06:13:05;;;;;;;13.13;5.67;;;;;;;17.74;49.47;100208.75;10486342;27;1839838;-74
2022/05/10 06:18:07;;;;;;;11.27;5.63;;;;;;;16.84;50.86;100065.81;10522506;28;20081;-77
2022/05/10 06:23:08;;;;;;;15.77;6.63;;;;;;;17.48;51.09;100160.59;10524270;28;20071;-77
2022/05/10 06:28:09;;;;;;;11.18;6.15;;;;;;;17.60;52.04;100225.16;10517617;28;20040;-74
2022/05/10 06:33:10;;;;;;;10.35;6.60;;;;;;;17.34;53.62;100246.59;10532437;28;20036;-75
2022/05/10 06:38:19;;;;;;;11.93;6.28;;;;;;;17.23;54.26;100255.34;10526826;28;20492;-73
2022/05/10 06:43:20;;;;;;;16.88;7.10;;;;;;;16.59;54.80;100144.31;10488235;28;20037;-72
2022/05/10 06:48:20;;;;;;;10.50;6.38;;;;;;;17.15;54.42;100269.00;10506474;28;20040;-73
2022/05/10 06:53:24;;;;;;;11.05;7.03;;;;;;;17.05;54.58;100285.56;10477506;28;20044;-73
2022/05/10 06:58:25;;;;;;;12.38;6.80;;;;;;;16.70;55.01;100274.25;10447711;28;20037;-78
2022/05/10 07:03:32;;;;;;;11.45;6.18;;;;;;;16.60;56.38;100280.06;10488787;28;20072;-79
2022/05/10 07:08:33;;;;;;;11.55;7.32;;;;;;;16.28;57.04;100265.66;10488487;28;20083;-77
2022/05/10 07:13:34;;;;;;;17.40;7.50;;;;;;;16.19;56.99;100277.63;10470396;28;20040;-73
2022/05/10 07:18:35;;;;;;;11.88;7.35;;;;;;;15.67;58.23;100255.91;10488180;28;20041;-76
2022/05/10 07:23:36;;;;;;;11.48;7.45;;;;;;;15.82;58.68;100311.16;10464737;28;20036;-77
2022/05/10 07:28:37;;;;;;;16.02;7.40;;;;;;;15.66;59.24;100306.97;10459638;28;20041;-75
2022/05/10 07:33:37;;;;;;;16.45;8.45;;;;;;;15.34;59.97;100309.34;10444631;28;20131;-75
2022/05/10 07:38:39;;;;;;;19.55;9.70;;;;;;;15.07;61.36;100337.81;10441933;28;20041;-73
2022/05/10 07:43:40;;;;;;;15.55;9.30;;;;;;;14.57;62.23;100305.84;10460263;28;20045;-78
2022/05/10 07:48:41;;;;;;;15.38;8.90;;;;;;;14.29;62.97;100303.13;10459829;28;20462;-77
2022/05/10 07:53:42;;;;;;;13.40;8.43;;;;;;;13.55;64.06;100217.19;10459145;28;20090;-78
2022/05/10 07:58:43;;;;;;;15.27;8.27;;;;;;;13.45;65.14;100228.19;10458898;28;20047;-76
2022/05/10 08:03:43;;;;;;;12.25;6.68;;;;;;;14.05;65.32;100340.94;10459483;28;20127;-69
2022/05/10 08:08:44;;;;;;;12.85;6.95;;;;;;;13.08;66.21;100248.69;10458449;28;20511;-74
2022/05/10 08:13:46;;;;;;;8.77;5.80;;;;;;;13.63;66.14;100347.88;10454354;28;20049;-77
2022/05/10 08:18:48;;;;;;;10.93;5.18;;;;;;;13.65;66.01;100389.38;10417814;28;20041;-76
2022/05/10 08:23:52;;;;;;;8.85;5.30;;;;;;;13.32;66.33;100361.47;10453481;28;20041;-78
2022/05/10 08:28:53;;;;;;;13.85;5.13;;;;;;;12.74;66.61;100276.78;10492335;28;20040;-80
2022/05/10 08:33:54;;;;;;;11.63;5.03;;;;;;;13.33;65.67;100371.94;10477777;28;20033;-77
2022/05/10 08:38:55;;;;;;;10.30;5.85;;;;;;;13.52;64.64;100353.69;10471783;28;20033;-79
2022/05/10 08:43:58;;;;;;;12.95;5.53;;;;;;;14.35;63.80;100414.59;10457424;28;20056;-74
2022/05/10 08:49:03;;;;;;;8.63;5.15;;;;;;;14.24;62.26;100347.47;10430956;28;20041;-76
2022/05/10 08:54:04;;;;;;;9.93;5.13;;;;;;;15.28;61.06;100406.47;10447109;28;20069;-79
2022/05/10 08:59:34;;;;;;;8.00;4.88;;;;;;;14.63;60.74;100330.13;10456644;28;20076;-77
2022/05/10 09:05:02;;;;;;;12.00;4.85;;;;;;;15.36;60.37;100395.63;10456465;28;20515;-78
2022/05/10 09:10:18;;;;;;;16.45;4.90;;;;;;;14.95;60.13;100286.72;10495808;28;20156;-78
2022/05/10 09:15:20;;;;;;;10.88;4.82;;;;;;;14.54;59.40;100220.69;10497544;28;20040;-78
2022/05/10 09:20:20;;;;;;;8.52;4.03;;;;;;;14.75;57.53;100227.00;10497101;28;20047;-75
2022/05/10 09:25:34;;;;;;;8.73;3.53;;;;;;;16.04;56.62;100419.00;10496979;28;20044;-74
2022/05/10 09:30:35;;;;;;;6.45;2.65;;;;;;;15.48;55.52;100280.78;10496837;28;20048;-81
2022/05/10 09:35:51;;;;;;;3.53;2.00;;;;;;;16.42;54.50;100390.63;10496722;28;20400;-76
2022/05/10 09:40:54;;;;;;;2.58;1.70;;;;;;;17.00;53.50;100384.66;10428712;28;20049;-77
2022/05/10 09:46:21;;;;;;;3.05;1.10;;;;;;;17.17;50.59;100405.66;10413517;28;20038;-78
2022/05/10 09:51:44;;;;;;;1.83;0.93;;;;;;;16.99;50.42;100417.91;10413460;28;20477;-75
2022/05/10 09:56:51;;;;;;;3.70;1.10;;;;;;;16.22;49.45;100293.28;10413521;28;20045;-79
2022/05/10 10:01:55;;;;;;;2.10;1.10;;;;;;;16.26;49.86;100307.09;10395425;28;20052;-82
2022/05/10 10:07:13;;;;;;;3.55;1.27;;;;;;;16.49;49.41;100287.91;10413948;28;20037;-74
2022/05/10 10:12:41;;;;;;;3.28;1.33;;;;;;;17.51;48.72;100394.63;10412822;28;20092;-83
2022/05/10 10:17:50;;;;;;;2.53;0.90;;;;;;;18.01;49.69;100410.16;10413716;28;20041;-79
2022/05/10 10:22:54;;;;;;;2.13;1.20;;;;;;;17.92;46.82;100406.03;10420167;28;20099;-78
2022/05/10 10:27:58;;;;;;;3.10;1.23;;;;;;;17.62;47.35;100393.16;10423066;28;20036;-82
2022/05/10 10:33:12;;;;;;;3.65;1.40;;;;;;;17.16;47.28;100276.00;10453273;28;20455;-78
2022/05/10 10:38:33;;;;;;;5.55;1.30;;;;;;;17.96;46.47;100391.16;10454047;28;20040;-76
2022/05/10 10:43:39;;;;;;;5.13;1.50;;;;;;;17.28;46.89;100400.47;10451827;28;20091;-78
2022/05/10 10:48:56;;;;;;;8.63;1.40;;;;;;;17.48;46.64;100402.28;10453417;28;20392;-76
2022/05/10 10:53:59;;;;;;;3.08;1.20;;;;;;;17.74;46.23;100399.50;10453399;28;20500;-79
2022/05/10 10:59:31;;;;;;;3.13;1.30;;;;;;;17.22;45.87;100290.44;10483785;28;20037;-76
2022/05/10 11:04:54;;;;;;;2.13;1.10;;;;;;;16.71;45.63;100221.44;10499479;28;20543;-81
2022/05/10 11:10:09;;;;;;;6.17;1.67;;;;;;;18.42;44.70;100390.84;10500100;28;20071;-81
2022/05/10 11:15:46;;;;;;;3.55;1.50;;;;;;;18.51;44.08;100391.41;10493128;28;20678;-81
2022/05/10 11:21:01;;;;;;;3.20;1.50;;;;;;;18.61;42.05;100402.50;10482115;28;20044;-81
2022/05/10 11:26:02;;;;;;;10.57;1.60;;;;;;;17.36;41.79;100186.50;10452878;28;20111;-82
2022/05/10 11:31:19;;;;;;;4.10;1.40;;;;;;;17.89;40.61;100289.06;10463987;28;20071;-76
2022/05/10 11:36:32;;;;;;;3.35;1.10;;;;;;;18.51;39.95;100402.16;10420057;28;20083;-77
2022/05/10 11:41:57;;;;;;;2.13;0.90;;;;;;;18.67;39.59;100388.16;10458040;28;20547;-76
2022/05/10 11:47:01;;;;;;;5.00;1.10;;;;;;;18.45;39.45;100397.66;10464526;28;20040;-79
2022/05/10 11:52:12;;;;;;;4.20;1.30;;;;;;;18.50;39.14;100405.91;10459247;28;20047;-72
2022/05/10 11:57:17;;;;;;;3.70;1.02;;;;;;;18.38;38.48;100386.94;10467278;28;20127;-75
2022/05/10 12:02:45;;;;;;;1.90;0.75;;;;;;;18.54;38.51;100379.38;10458755;28;20052;-75
2022/05/10 12:07:49;;;;;;;3.42;0.93;;;;;;;17.41;38.46;100232.28;10452328;28;20143;-76
2022/05/10 12:24:25;;;;;;;5.25;0.95;;;;;;;18.32;37.61;100387.00;10464907;28;20044;-76
2022/05/10 12:29:38;;;;;;;3.75;0.82;;;;;;;18.31;36.84;100396.94;10498777;28;20151;-74
2022/05/10 12:34:43;;;;;;;1.45;0.80;;;;;;;17.68;36.46;100303.66;10498653;28;20075;-75
2022/05/10 12:39:51;;;;;;;5.03;0.82;;;;;;;18.20;36.95;100382.31;10498981;28;20522;-75
2022/05/10 12:45:26;;;;;;;3.35;0.80;;;;;;;18.45;35.91;100395.78;10499503;28;20140;-77
2022/05/10 12:50:47;;;;;;;1.70;0.90;;;;;;;17.75;35.84;100395.78;10497732;28;20040;-79
2022/05/10 12:55:51;;;;;;;5.07;1.17;;;;;;;16.63;37.79;100276.97;10498001;28;20037;-78
2022/05/10 13:00:55;;;;;;;2.80;1.20;;;;;;;16.86;37.35;100356.19;10447423;28;20053;-78
2022/05/10 13:06:14;;;;;;;4.78;1.20;;;;;;;17.50;36.78;100390.31;10423109;28;20128;-75
2022/05/10 13:11:15;;;;;;;8.65;1.10;;;;;;;17.45;36.65;100338.25;10468757;28;20056;-80
2022/05/10 13:16:23;;;;;;;5.38;0.95;;;;;;;17.76;36.38;100365.16;10480818;28;20502;-77
2022/05/10 13:21:29;;;;;;;3.85;1.02;;;;;;;17.42;35.05;100314.53;10497187;28;20470;-80
2022/05/10 13:26:30;;;;;;;6.40;1.42;;;;;;;17.03;36.56;100306.41;10496349;28;20078;-78
2022/05/10 13:31:37;;;;;;;2.95;1.10;;;;;;;17.61;36.01;100436.31;10496322;28;20045;-77
2022/05/10 13:36:41;;;;;;;2.03;0.70;;;;;;;16.99;36.55;100439.38;10496306;28;20048;-80
2022/05/10 13:41:42;;;;;;;1.73;0.63;;;;;;;16.45;36.42;100367.91;10496848;28;20079;-78
2022/05/10 13:46:46;;;;;;;1.70;0.85;;;;;;;17.16;36.15;100444.28;10490535;28;20032;-76
2022/05/10 13:51:52;;;;;;;2.65;0.80;;;;;;;16.92;36.29;100405.50;10482592;28;20048;-83
2022/05/10 13:56:53;;;;;;;4.10;0.80;;;;;;;16.65;36.60;100325.00;10489409;28;20484;-80
2022/05/10 14:01:54;;;;;;;2.53;1.00;;;;;;;17.67;35.74;100435.47;10493540;28;20089;-80
2022/05/10 14:06:58;;;;;;;7.55;1.42;;;;;;;16.89;35.45;100328.94;10484152;28;20036;-82
2022/05/10 14:12:00;;;;;;;3.30;0.95;;;;;;;15.91;35.64;100217.03;10474747;28;20102;-80
2022/05/10 14:17:04;;;;;;;15.80;1.80;;;;;;;17.25;35.15;100459.97;10488380;28;20052;-82
2022/05/10 14:22:24;;;;;;;;;;;;;;;17.47;36.05;100457.03;10493921;28;20399;-79
2022/05/10 14:27:26;;;;;;;1.15;0.60;;;;;;;16.21;36.06;100296.97;10488669;28;19916;-77
2022/05/10 14:32:27;;;;;;;3.90;0.90;;;;;;;17.13;36.22;100450.88;10493042;28;20174;-78
2022/05/10 14:37:36;;;;;;;2.95;0.80;;;;;;;17.03;36.07;100462.06;10462347;28;20132;-78
2022/05/10 14:42:40;;;;;;;3.95;0.70;;;;;;;16.80;36.10;100446.38;10461936;28;20098;-79
2022/05/10 14:47:43;;;;;;;2.08;0.82;;;;;;;16.38;36.23;100413.50;10462387;28;20066;-77
2022/05/10 14:52:44;;;;;;;14.23;1.58;;;;;;;15.92;36.54;100333.88;10461506;28;20041;-78
2022/05/10 14:57:53;;;;;;;3.50;1.00;;;;;;;16.11;36.05;100356.34;10461147;28;20485;-79
2022/05/10 15:03:16;;;;;;;21.92;2.95;;;;;;;16.66;36.28;100469.66;10419449;28;20056;-77
2022/05/10 15:08:18;;;;;;;6.47;2.05;;;;;;;16.35;37.15;100445.25;10419891;28;20052;-76
2022/05/10 15:13:19;;;;;;;3.55;1.08;;;;;;;16.17;37.59;100432.44;10418637;28;20140;-76
2022/05/10 15:23:50;;;;;;;3.80;0.90;;;;;;;15.91;38.80;100463.50;10418905;28;20037;-75
2022/05/10 15:28:51;;;;;;;7.47;1.10;;;;;;;15.07;38.98;100348.53;10419516;28;20049;-77
2022/05/10 15:33:54;;;;;;;2.88;1.10;;;;;;;14.14;39.66;100268.47;10418890;28;20046;-78
2022/05/10 15:38:55;;;;;;;5.07;1.17;;;;;;;14.81;40.41;100451.66;10418866;28;20119;-78
2022/05/10 15:43:55;;;;;;;1.75;1.00;;;;;;;13.95;40.97;100349.25;10417324;28;20080;-77
2022/05/10 15:48:57;;;;;;;3.30;1.73;;;;;;;14.63;41.37;100498.56;10419286;28;20524;-77
2022/05/10 15:53:58;;;;;;;4.63;1.48;;;;;;;14.25;43.02;100488.91;10417403;28;20412;-76
2022/05/10 15:58:59;;;;;;;9.55;1.40;;;;;;;13.78;43.72;100442.09;10446077;28;20041;-76
2022/05/10 16:03:59;;;;;;;4.50;1.30;;;;;;;13.00;44.25;100388.28;10430754;28;20060;-77
2022/05/10 16:09:00;;;;;;;4.43;1.50;;;;;;;13.21;45.29;100454.25;10472602;28;20446;-76
2022/05/10 16:14:02;;;;;;;15.43;1.92;;;;;;;13.43;46.22;100529.09;10500270;28;20560;-76
2022/05/10 16:19:03;;;;;;;4.30;1.50;;;;;;;12.67;46.18;100425.09;10499283;28;20067;-77
2022/05/10 16:24:05;;;;;;;2.85;0.90;;;;;;;12.95;47.37;100489.34;10500215;28;20044;-77
2022/05/10 16:34:24;;;;;;;6.20;2.00;;;;;;;12.56;48.14;100438.81;10498918;28;20480;-76
2022/05/10 16:39:25;;;;;;;5.10;1.40;;;;;;;12.27;48.90;100376.44;10499525;28;20048;-77
2022/05/10 16:44:26;;;;;;;4.60;1.42;;;;;;;12.89;49.40;100482.06;10481282;28;20127;-77
2022/05/10 16:49:27;;;;;;;13.48;6.20;;;;;;;12.58;50.39;100447.47;10497813;28;20040;-81
2022/05/10 16:54:31;;;;;;;14.25;6.50;;;;;;;12.46;50.52;100446.25;10378673;28;20062;-74
2022/05/10 16:59:32;;;;;;;6.63;3.97;;;;;;;13.07;51.45;100564.38;10334575;28;20045;-77
2022/05/10 17:04:39;;;;;;;4.30;2.25;;;;;;;12.82;51.48;100553.09;10333405;28;20089;-75
2022/05/10 17:09:41;;;;;;;6.82;2.58;;;;;;;12.17;52.05;100473.56;10332326;28;20486;-76
2022/05/10 17:14:42;;;;;;;5.55;2.80;;;;;;;12.67;52.75;100560.19;10333802;28;20085;-77
2022/05/10 17:19:43;;;;;;;5.38;2.80;;;;;;;12.83;53.28;100607.22;10333605;28;20576;-79
2022/05/10 17:24:44;;;;;;;4.63;2.80;;;;;;;12.69;54.52;100601.66;10333890;28;20049;-78
2022/05/10 17:29:44;;;;;;;3.42;1.92;;;;;;;11.96;54.18;100484.81;10331370;28;21003;-78
2022/05/10 17:34:45;;;;;;;9.27;3.47;;;;;;;12.76;54.88;100605.25;10332104;28;20517;-78
2022/05/10 17:39:46;;;;;;;9.90;5.18;;;;;;;12.64;55.67;100616.50;10332755;28;20049;-78
2022/05/10 17:44:47;;;;;;;8.30;2.60;;;;;;;12.12;56.76;100543.34;10333262;28;20050;-76
2022/05/10 17:49:48;;;;;;;3.58;1.60;;;;;;;11.86;56.97;100520.47;10294358;28;20530;-76
2022/05/10 17:54:53;;;;;;;5.07;1.55;;;;;;;11.71;58.51;100519.47;10308783;28;20054;-76
2022/05/10 17:59:54;;;;;;;20.45;2.10;;;;;;;12.10;59.17;100582.59;10331527;28;20407;-77
2022/05/10 18:04:55;;;;;;;5.32;1.33;;;;;;;12.24;59.40;100608.53;10327111;28;20049;-78
2022/05/10 18:09:56;;;;;;;5.72;1.50;;;;;;;11.46;61.07;100505.44;10317776;28;20105;-78
2022/05/10 18:14:57;;;;;;;3.90;1.80;;;;;;;11.99;61.86;100613.09;10305312;28;20541;-77
2022/05/10 18:19:58;;;;;;;11.32;1.58;;;;;;;12.10;61.40;100636.69;10323441;28;20134;-78
2022/05/10 18:24:59;;;;;;;12.30;1.92;;;;;;;12.04;60.65;100616.06;10359433;28;20046;-76
2022/05/10 18:30:00;;;;;;;3.30;1.73;;;;;;;12.17;60.32;100620.84;10315158;28;20532;-74
2022/05/10 18:35:01;;;;;;;5.43;2.08;;;;;;;11.14;60.31;100459.25;10327872;28;20042;-81
2022/05/10 18:40:02;;;;;;;5.53;1.95;;;;;;;11.35;61.74;100530.53;10324611;28;20050;-77
2022/05/10 18:45:08;;;;;;;6.15;1.90;;;;;;;11.30;61.86;100522.22;10348664;28;20453;-77
2022/05/10 18:50:10;;;;;;;4.70;1.40;;;;;;;11.74;61.10;100585.69;10324471;28;20045;-77
2022/05/10 18:55:11;;;;;;;6.72;1.48;;;;;;;11.38;61.75;100535.50;10324110;28;20038;-76
2022/05/10 19:00:14;;;;;;;4.80;1.30;;;;;;;10.46;61.60;100395.88;10340327;28;20449;-76
2022/05/10 19:05:15;;;;;;;2.65;1.52;;;;;;;10.90;61.53;100476.06;10345734;28;20058;-75
2022/05/10 19:10:17;;;;;;;7.50;1.85;;;;;;;11.90;62.32;100643.41;10341698;28;20516;-78
2022/05/10 19:15:25;;;;;;;18.08;4.13;;;;;;;11.93;62.84;100651.03;10328369;28;20472;-76
2022/05/10 19:20:25;;;;;;;6.20;1.80;;;;;;;11.30;61.24;100534.69;10313264;28;20041;-75
2022/05/10 19:25:27;;;;;;;4.50;1.50;;;;;;;11.98;59.43;100637.22;10337382;28;20486;-77
2022/05/10 19:30:29;;;;;;;7.07;1.23;;;;;;;12.00;58.35;100611.28;10355340;28;20052;-77
2022/05/10 19:35:31;;;;;;;4.03;1.20;;;;;;;11.59;58.43;100560.75;10337514;28;20054;-77
2022/05/10 19:40:32;;;;;;;3.13;1.05;;;;;;;11.12;57.14;100471.06;10323070;28;20042;-75
2022/05/10 19:45:33;;;;;;;3.35;1.00;;;;;;;11.78;58.06;100579.00;10296931;28;20047;-76
2022/05/10 19:50:33;;;;;;;3.53;1.20;;;;;;;12.00;58.32;100605.97;10335600;28;20046;-76
2022/05/10 19:55:34;;;;;;;10.63;1.38;;;;;;;11.24;58.84;100490.97;10342661;28;20080;-77
2022/05/10 20:00:35;;;;;;;8.25;1.52;;;;;;;11.40;58.67;100522.06;10337224;28;20406;-75
2022/05/10 20:05:37;;;;;;;11.18;1.73;;;;;;;11.34;60.07;100509.44;10336163;28;20049;-76
2022/05/10 20:10:44;;;;;;;8.05;1.52;;;;;;;10.58;60.69;100394.53;10316164;28;20058;-76
2022/05/10 20:15:45;;;;;;;8.80;1.73;;;;;;;11.48;60.74;100556.59;10335882;28;20042;-76
2022/05/10 20:20:47;;;;;;;13.23;1.83;;;;;;;9.72;60.73;100272.84;10335649;28;20475;-77
2022/05/10 20:25:48;;;;;;;5.47;1.50;;;;;;;11.47;60.72;100556.78;10336207;28;20038;-77
2022/05/10 20:30:49;;;;;;;13.98;1.80;;;;;;;10.89;61.16;100471.75;10335497;28;20074;-76
2022/05/10 20:35:50;;;;;;;7.85;1.23;;;;;;;10.79;61.07;100459.63;10334949;28;20482;-76
2022/05/10 20:40:51;;;;;;;5.45;1.40;;;;;;;11.71;62.20;100631.25;10335528;28;20042;-76
2022/05/10 20:45:51;;;;;;;7.32;1.67;;;;;;;10.92;62.88;100513.13;10334726;28;20129;-76
2022/05/10 20:50:53;;;;;;;4.88;1.40;;;;;;;10.18;63.02;100374.91;10329853;28;20101;-76
2022/05/10 20:55:54;;;;;;;6.32;1.58;;;;;;;11.46;63.56;100595.88;10352193;28;20563;-76
2022/05/10 21:00:55;;;;;;;4.25;1.38;;;;;;;10.88;63.83;100515.25;10333475;28;20073;-75
2022/05/10 21:05:56;;;;;;;10.35;1.63;;;;;;;11.22;63.83;100570.13;10333473;28;20077;-76
2022/05/10 21:11:09;;;;;;;5.80;1.40;;;;;;;11.18;66.96;100563.44;10332290;28;20141;-76
2022/05/10 21:16:10;;;;;;;3.80;1.40;;;;;;;11.23;64.59;100568.28;10332830;28;20091;-75
2022/05/10 21:21:10;;;;;;;19.05;10.52;;;;;;;10.46;64.62;100460.44;10333892;28;20133;-75
2022/05/10 21:26:12;;;;;;;9.18;4.65;;;;;;;10.54;64.63;100488.84;10332488;28;20463;-76
2022/05/10 21:31:15;;;;;;;4.88;2.75;;;;;;;10.76;64.95;100519.25;10332482;28;20038;-76
2022/05/10 21:36:16;;;;;;;7.70;2.60;;;;;;;10.66;66.11;100500.00;10333762;28;20074;-75
2022/05/10 21:41:20;;;;;;;4.97;2.00;;;;;;;10.48;66.04;100473.56;10331759;28;20062;-75
2022/05/10 21:46:21;;;;;;;8.73;3.20;;;;;;;10.63;65.36;100518.91;10331950;28;20034;-75
2022/05/10 21:51:22;;;;;;;9.27;3.45;;;;;;;10.15;65.63;100441.63;10331577;28;20140;-76
2022/05/10 21:56:23;;;;;;;6.43;2.95;;;;;;;10.74;66.48;100540.69;10333041;28;20436;-76
2022/05/10 22:01:24;;;;;;;6.68;2.53;;;;;;;10.32;66.63;100458.44;10331508;28;20042;-76
2022/05/10 22:06:25;;;;;;;4.13;2.13;;;;;;;9.98;67.54;100422.16;10331966;28;20507;-76
2022/05/10 22:11:26;;;;;;;3.92;2.20;;;;;;;10.80;68.13;100548.97;10331844;28;20069;-76
2022/05/10 22:16:27;;;;;;;3.13;1.80;;;;;;;9.98;68.21;100429.28;10330062;28;20137;-76
2022/05/10 22:21:28;;;;;;;5.05;1.85;;;;;;;10.69;68.18;100539.50;10297451;28;20458;-74
2022/05/10 22:26:31;;;;;;;3.25;1.70;;;;;;;9.99;68.17;100421.19;10290843;28;20093;-76
2022/05/10 22:31:31;;;;;;;3.60;1.30;;;;;;;10.13;68.61;100454.22;10305732;28;20503;-76
2022/05/10 22:36:32;;;;;;;2.78;1.77;;;;;;;8.64;68.83;100215.22;10290511;28;20038;-77
2022/05/10 22:41:33;;;;;;;3.40;1.73;;;;;;;10.60;69.39;100551.13;10289657;28;20137;-76
2022/05/10 22:46:34;;;;;;;4.75;2.05;;;;;;;10.63;69.84;100541.00;10290465;28;20039;-76
2022/05/10 22:51:35;;;;;;;5.05;2.10;;;;;;;10.56;69.91;100513.44;10292148;28;20054;-76
2022/05/10 22:56:36;;;;;;;7.45;1.98;;;;;;;9.13;69.99;100296.75;10298302;28;20046;-76
2022/05/10 23:01:39;;;;;;;3.95;1.92;;;;;;;9.16;71.00;100330.91;10298925;28;20121;-76
2022/05/10 23:06:40;;;;;;;4.80;1.83;;;;;;;8.95;70.66;100311.91;10297909;28;20122;-76
2022/05/10 23:11:41;;;;;;;4.75;2.28;;;;;;;10.17;71.86;100523.72;10297627;28;20142;-75
2022/05/10 23:16:42;;;;;;;4.03;2.10;;;;;;;10.01;72.67;100540.44;10297179;28;20051;-76
2022/05/10 23:21:42;;;;;;;3.38;2.20;;;;;;;8.88;72.82;100356.72;10297868;28;20070;-76
2022/05/10 23:26:43;;;;;;;4.63;1.90;;;;;;;9.19;73.00;100435.78;10298038;28;20047;-76
2022/05/10 23:31:44;;;;;;;3.05;1.65;;;;;;;9.10;73.35;100434.88;10297326;28;20499;-76
2022/05/10 23:36:45;;;;;;;7.75;1.90;;;;;;;8.98;73.06;100421.06;10296651;28;20414;-76
2022/05/10 23:41:46;;;;;;;4.65;1.90;;;;;;;8.46;73.15;100344.19;10296563;28;20487;-76